Cincinnati Northern Kentucky International Airport
KCVG : now visible

Airfield :











YOU CAN JOIN US ON...

 
LOGIN :

Register | Disclaimer

   EN    FR    IT 

 









Legend :    VFR   Marginal VFR   IFR   Intensive IFR   Very Intensive IFR
Visi :
Ceiling :
>= 8 km
>= 3000ft
5 to 8 km
1000 to 3000 ft
1500m to 5 km
500 to 1000 ft
800 to 1500m
200 to 500 ft
< 800m
< 200 ft
Symbols :   Thunderstorms  Fog  Heavy snow  Heavy precipitations  Wind > 20 kt






- Airport Elevation : 896 ft
- IATA code : CVG


KCVG - Cincinnati Northern Kentucky International

CURRENT METAR :
  • 281552Z 22006KT 10SM FEW025 SCT033 SCT044 24/17 A2998 RMK AO2 SLP142 T02390172

EXPIRED METARs :
  • 281502Z 23009KT 10SM FEW016 SCT022 BKN030 23/18 A2997 RMK AO2 T02330178
  • 281452Z 23010KT 10SM SCT016 SCT022 BKN028 23/18 A2997 RMK AO2 SLP140 60000 T02330178 51008
  • 281413Z 26010KT 10SM SCT015 BKN020 22/18 A2997 RMK AO2 BKN V SCT T02220183
  • 281352Z 23010KT 10SM FEW009 BKN014 BKN032 22/18 A2997 RMK AO2 SLP139 T02170183
  • 281323Z 20007KT 10SM BKN011 BKN016 OVC026 21/19 A2996 RMK AO2 BINOVC T02110189

TAF KCVG
Valid from the 28 at 16:00 until the 29 at 18:00 UTC


281602Z 2816/2918 20008KT P6SM VCSH BKN035
FM281800 20008KT P6SM VCSH BKN035
FM290000 20005KT P6SM SCT080
FM291500 22010KT P6SM -SHRA OVC050
KZID FIR / North America



MET'MAP, your aeronautical weather chart ! - Copyright ORBIFLY December 2007 - Disclaimer

ORBIFLY MET'MAP TEAM :

Programming & Development : Alexandra Zaïnal
Concept & original design : Baudouin d'Aumeries
Assistance for programming : Marc-Olivier Méhu
Technical & hardware support : Manuel Goepfert

Contact : metmap@orbifly.com




SOURCES & CREDITS :

   NOAA       Earth
Advisory